sensor_id;sensor_type;location;lat;lon;timestamp;temperature;humidity
16114;DHT22;8161;-33.910;151.156;2023-04-02T00:07:53;18.90;99.90
16114;DHT22;8161;-33.910;151.156;2023-04-02T00:10:33;19.00;99.90
16114;DHT22;8161;-33.910;151.156;2023-04-02T00:15:46;18.90;99.90
16114;DHT22;8161;-33.910;151.156;2023-04-02T00:18:18;19.70;99.90
16114;DHT22;8161;-33.910;151.156;2023-04-02T00:21:09;19.50;99.90
16114;DHT22;8161;-33.910;151.156;2023-04-02T00:23:41;19.60;99.90
16114;DHT22;8161;-33.910;151.156;2023-04-02T00:29:00;19.80;99.90
16114;DHT22;8161;-33.910;151.156;2023-04-02T00:31:28;19.70;99.90
16114;DHT22;8161;-33.910;151.156;2023-04-02T00:33:58;20.20;99.90
16114;DHT22;8161;-33.910;151.156;2023-04-02T00:36:29;20.20;99.90
16114;DHT22;8161;-33.910;151.156;2023-04-02T00:39:00;20.50;99.90
16114;DHT22;8161;-33.910;151.156;2023-04-02T00:41:30;20.20;99.90
16114;DHT22;8161;-33.910;151.156;2023-04-02T00:44:02;20.30;99.90
16114;DHT22;8161;-33.910;151.156;2023-04-02T00:46:32;20.00;99.90
16114;DHT22;8161;-33.910;151.156;2023-04-02T00:49:34;20.40;99.90
16114;DHT22;8161;-33.910;151.156;2023-04-02T00:52:05;20.20;99.90
16114;DHT22;8161;-33.910;151.156;2023-04-02T00:54:41;20.30;99.90
16114;DHT22;8161;-33.910;151.156;2023-04-02T00:57:15;20.70;99.90
16114;DHT22;8161;-33.910;151.156;2023-04-02T01:04:56;20.80;99.90
16114;DHT22;8161;-33.910;151.156;2023-04-02T01:10:32;21.00;99.90
16114;DHT22;8161;-33.910;151.156;2023-04-02T01:13:24;21.00;99.90
16114;DHT22;8161;-33.910;151.156;2023-04-02T01:19:12;20.80;99.90
16114;DHT22;8161;-33.910;151.156;2023-04-02T01:21:52;20.90;99.90
16114;DHT22;8161;-33.910;151.156;2023-04-02T01:24:23;20.70;99.90
16114;DHT22;8161;-33.910;151.156;2023-04-02T01:26:57;20.50;99.90
16114;DHT22;8161;-33.910;151.156;2023-04-02T01:29:31;20.40;99.90
16114;DHT22;8161;-33.910;151.156;2023-04-02T01:32:08;20.20;99.90
16114;DHT22;8161;-33.910;151.156;2023-04-02T01:34:39;19.90;99.90
16114;DHT22;8161;-33.910;151.156;2023-04-02T01:40:20;19.60;99.90
16114;DHT22;8161;-33.910;151.156;2023-04-02T01:45:23;19.80;99.90
16114;DHT22;8161;-33.910;151.156;2023-04-02T01:47:51;19.80;99.90
16114;DHT22;8161;-33.910;151.156;2023-04-02T01:50:29;19.80;99.90
16114;DHT22;8161;-33.910;151.156;2023-04-02T01:52:59;19.90;99.90
16114;DHT22;8161;-33.910;151.156;2023-04-02T01:55:49;19.90;99.90
16114;DHT22;8161;-33.910;151.156;2023-04-02T01:58:29;19.80;99.90
16114;DHT22;8161;-33.910;151.156;2023-04-02T02:01:06;20.00;99.90
16114;DHT22;8161;-33.910;151.156;2023-04-02T02:03:40;20.00;99.90
16114;DHT22;8161;-33.910;151.156;2023-04-02T02:06:11;20.10;99.90
16114;DHT22;8161;-33.910;151.156;2023-04-02T02:11:21;20.20;99.90
16114;DHT22;8161;-33.910;151.156;2023-04-02T02:14:05;19.30;99.90
16114;DHT22;8161;-33.910;151.156;2023-04-02T02:16:38;20.10;99.90
16114;DHT22;8161;-33.910;151.156;2023-04-02T02:19:26;20.10;99.90
16114;DHT22;8161;-33.910;151.156;2023-04-02T02:21:59;20.10;99.90
16114;DHT22;8161;-33.910;151.156;2023-04-02T02:24:36;20.30;99.90
16114;DHT22;8161;-33.910;151.156;2023-04-02T02:30:11;21.10;99.90
16114;DHT22;8161;-33.910;151.156;2023-04-02T02:32:46;20.40;99.90
16114;DHT22;8161;-33.910;151.156;2023-04-02T02:37:55;21.20;99.90
16114;DHT22;8161;-33.910;151.156;2023-04-02T02:40:37;21.70;99.90
16114;DHT22;8161;-33.910;151.156;2023-04-02T02:43:12;21.60;99.90
16114;DHT22;8161;-33.910;151.156;2023-04-02T02:45:41;21.80;99.90
16114;DHT22;8161;-33.910;151.156;2023-04-02T02:48:15;21.90;99.90
16114;DHT22;8161;-33.910;151.156;2023-04-02T02:50:44;22.00;99.90
16114;DHT22;8161;-33.910;151.156;2023-04-02T02:53:23;21.80;99.90
16114;DHT22;8161;-33.910;151.156;2023-04-02T02:55:54;21.90;99.90
16114;DHT22;8161;-33.910;151.156;2023-04-02T02:58:28;21.60;99.90
16114;DHT22;8161;-33.910;151.156;2023-04-02T03:00:57;21.70;99.90
16114;DHT22;8161;-33.910;151.156;2023-04-02T03:03:27;21.60;99.90
16114;DHT22;8161;-33.910;151.156;2023-04-02T03:06:02;21.40;99.90
16114;DHT22;8161;-33.910;151.156;2023-04-02T03:08:37;21.40;99.90
16114;DHT22;8161;-33.910;151.156;2023-04-02T03:13:38;20.50;99.90
16114;DHT22;8161;-33.910;151.156;2023-04-02T03:19:01;19.40;99.90
16114;DHT22;8161;-33.910;151.156;2023-04-02T03:21:38;19.00;99.90
16114;DHT22;8161;-33.910;151.156;2023-04-02T03:24:16;18.80;99.90
16114;DHT22;8161;-33.910;151.156;2023-04-02T03:26:54;18.70;99.90
16114;DHT22;8161;-33.910;151.156;2023-04-02T03:29:30;18.70;99.90
16114;DHT22;8161;-33.910;151.156;2023-04-02T03:32:14;18.70;99.90
16114;DHT22;8161;-33.910;151.156;2023-04-02T03:35:00;18.90;99.90
16114;DHT22;8161;-33.910;151.156;2023-04-02T03:37:44;18.60;99.90
16114;DHT22;8161;-33.910;151.156;2023-04-02T03:40:25;19.00;99.90
16114;DHT22;8161;-33.910;151.156;2023-04-02T03:45:47;18.50;99.90
16114;DHT22;8161;-33.910;151.156;2023-04-02T03:48:27;18.70;99.90
16114;DHT22;8161;-33.910;151.156;2023-04-02T03:51:19;18.60;99.90
16114;DHT22;8161;-33.910;151.156;2023-04-02T03:53:48;18.30;99.90
16114;DHT22;8161;-33.910;151.156;2023-04-02T03:56:30;17.90;99.90
16114;DHT22;8161;-33.910;151.156;2023-04-02T04:04:42;18.30;99.90
16114;DHT22;8161;-33.910;151.156;2023-04-02T04:07:18;18.00;99.90
16114;DHT22;8161;-33.910;151.156;2023-04-02T04:15:19;18.60;99.90
16114;DHT22;8161;-33.910;151.156;2023-04-02T04:18:02;18.20;99.90
16114;DHT22;8161;-33.910;151.156;2023-04-02T04:20:57;18.20;99.90
16114;DHT22;8161;-33.910;151.156;2023-04-02T04:26:25;18.30;99.90
16114;DHT22;8161;-33.910;151.156;2023-04-02T04:31:37;18.90;99.90
16114;DHT22;8161;-33.910;151.156;2023-04-02T04:34:16;19.00;99.90
16114;DHT22;8161;-33.910;151.156;2023-04-02T04:36:56;19.20;99.90
16114;DHT22;8161;-33.910;151.156;2023-04-02T04:42:15;18.60;99.90
16114;DHT22;8161;-33.910;151.156;2023-04-02T04:45:49;18.60;99.90
16114;DHT22;8161;-33.910;151.156;2023-04-02T04:47:56;18.40;99.90
16114;DHT22;8161;-33.910;151.156;2023-04-02T04:50:32;18.60;99.90
16114;DHT22;8161;-33.910;151.156;2023-04-02T04:53:13;18.30;99.90
16114;DHT22;8161;-33.910;151.156;2023-04-02T04:55:48;18.20;99.90
16114;DHT22;8161;-33.910;151.156;2023-04-02T05:01:14;18.20;99.90
16114;DHT22;8161;-33.910;151.156;2023-04-02T05:03:50;18.20;99.90
16114;DHT22;8161;-33.910;151.156;2023-04-02T05:06:36;18.40;99.90
16114;DHT22;8161;-33.910;151.156;2023-04-02T05:15:03;18.20;99.90
16114;DHT22;8161;-33.910;151.156;2023-04-02T05:20:34;18.00;99.90
16114;DHT22;8161;-33.910;151.156;2023-04-02T05:28:31;18.50;99.90
16114;DHT22;8161;-33.910;151.156;2023-04-02T05:34:10;19.00;99.90
16114;DHT22;8161;-33.910;151.156;2023-04-02T05:36:38;19.40;99.90
16114;DHT22;8161;-33.910;151.156;2023-04-02T05:39:09;19.40;99.90
16114;DHT22;8161;-33.910;151.156;2023-04-02T05:41:42;19.40;99.90
16114;DHT22;8161;-33.910;151.156;2023-04-02T05:44:23;19.40;99.90
16114;DHT22;8161;-33.910;151.156;2023-04-02T05:47:03;19.20;99.90
16114;DHT22;8161;-33.910;151.156;2023-04-02T05:50:04;19.10;99.90
16114;DHT22;8161;-33.910;151.156;2023-04-02T05:52:44;19.30;99.90
16114;DHT22;8161;-33.910;151.156;2023-04-02T05:57:44;19.30;99.90
16114;DHT22;8161;-33.910;151.156;2023-04-02T06:00:17;19.10;99.90
16114;DHT22;8161;-33.910;151.156;2023-04-02T06:05:58;20.60;99.90
16114;DHT22;8161;-33.910;151.156;2023-04-02T06:08:37;20.10;99.90
16114;DHT22;8161;-33.910;151.156;2023-04-02T06:11:12;20.90;99.90
16114;DHT22;8161;-33.910;151.156;2023-04-02T06:13:43;20.40;99.90
16114;DHT22;8161;-33.910;151.156;2023-04-02T06:16:14;21.30;99.90
16114;DHT22;8161;-33.910;151.156;2023-04-02T06:18:42;21.40;99.90
16114;DHT22;8161;-33.910;151.156;2023-04-02T06:21:13;21.20;99.90
16114;DHT22;8161;-33.910;151.156;2023-04-02T06:23:56;21.50;99.90
16114;DHT22;8161;-33.910;151.156;2023-04-02T06:32:00;22.20;99.90
16114;DHT22;8161;-33.910;151.156;2023-04-02T06:34:28;22.10;99.90
16114;DHT22;8161;-33.910;151.156;2023-04-02T06:37:02;21.80;99.90
16114;DHT22;8161;-33.910;151.156;2023-04-02T06:42:05;21.60;99.90
16114;DHT22;8161;-33.910;151.156;2023-04-02T06:44:36;21.50;99.90
16114;DHT22;8161;-33.910;151.156;2023-04-02T06:50:29;21.30;99.90
16114;DHT22;8161;-33.910;151.156;2023-04-02T06:53:03;21.10;99.90
16114;DHT22;8161;-33.910;151.156;2023-04-02T06:55:33;20.80;99.90
16114;DHT22;8161;-33.910;151.156;2023-04-02T06:58:04;20.90;99.90
16114;DHT22;8161;-33.910;151.156;2023-04-02T07:03:00;20.60;99.90
16114;DHT22;8161;-33.910;151.156;2023-04-02T07:05:31;19.50;99.90
16114;DHT22;8161;-33.910;151.156;2023-04-02T07:07:58;20.40;99.90
16114;DHT22;8161;-33.910;151.156;2023-04-02T07:10:25;20.50;99.90
16114;DHT22;8161;-33.910;151.156;2023-04-02T07:12:52;20.40;99.90
16114;DHT22;8161;-33.910;151.156;2023-04-02T07:15:20;20.30;99.90
16114;DHT22;8161;-33.910;151.156;2023-04-02T07:17:50;20.20;99.90
16114;DHT22;8161;-33.910;151.156;2023-04-02T07:20:26;19.90;99.90
16114;DHT22;8161;-33.910;151.156;2023-04-02T07:22:54;19.90;99.90
16114;DHT22;8161;-33.910;151.156;2023-04-02T07:25:22;20.20;99.90
16114;DHT22;8161;-33.910;151.156;2023-04-02T07:27:51;20.20;99.90
16114;DHT22;8161;-33.910;151.156;2023-04-02T07:30:18;20.10;99.90
16114;DHT22;8161;-33.910;151.156;2023-04-02T07:32:46;20.20;99.90
16114;DHT22;8161;-33.910;151.156;2023-04-02T07:35:13;20.00;99.90
16114;DHT22;8161;-33.910;151.156;2023-04-02T07:40:19;19.60;99.90
16114;DHT22;8161;-33.910;151.156;2023-04-02T07:42:49;19.70;99.90
16114;DHT22;8161;-33.910;151.156;2023-04-02T07:45:17;19.70;99.90
16114;DHT22;8161;-33.910;151.156;2023-04-02T07:47:44;19.70;99.90
16114;DHT22;8161;-33.910;151.156;2023-04-02T07:50:14;19.60;99.90
16114;DHT22;8161;-33.910;151.156;2023-04-02T07:52:42;19.80;99.90
16114;DHT22;8161;-33.910;151.156;2023-04-02T07:55:11;20.10;99.90
16114;DHT22;8161;-33.910;151.156;2023-04-02T07:57:58;19.70;99.90
16114;DHT22;8161;-33.910;151.156;2023-04-02T08:00:26;19.20;99.90
16114;DHT22;8161;-33.910;151.156;2023-04-02T08:02:54;19.60;99.90
16114;DHT22;8161;-33.910;151.156;2023-04-02T08:07:55;19.30;99.90
16114;DHT22;8161;-33.910;151.156;2023-04-02T08:12:50;18.60;99.90
16114;DHT22;8161;-33.910;151.156;2023-04-02T08:17:48;18.60;99.90
16114;DHT22;8161;-33.910;151.156;2023-04-02T08:20:17;18.90;99.90
16114;DHT22;8161;-33.910;151.156;2023-04-02T08:25:12;18.90;99.90
16114;DHT22;8161;-33.910;151.156;2023-04-02T08:27:45;18.60;99.90
16114;DHT22;8161;-33.910;151.156;2023-04-02T08:32:39;18.80;99.90
16114;DHT22;8161;-33.910;151.156;2023-04-02T08:35:08;19.40;99.90
16114;DHT22;8161;-33.910;151.156;2023-04-02T08:37:35;19.20;99.90
16114;DHT22;8161;-33.910;151.156;2023-04-02T08:40:04;19.40;99.90
16114;DHT22;8161;-33.910;151.156;2023-04-02T08:45:19;19.20;99.90
16114;DHT22;8161;-33.910;151.156;2023-04-02T08:47:50;19.20;99.90
16114;DHT22;8161;-33.910;151.156;2023-04-02T08:50:35;19.40;99.90
16114;DHT22;8161;-33.910;151.156;2023-04-02T08:53:27;19.50;99.90
16114;DHT22;8161;-33.910;151.156;2023-04-02T08:56:19;19.60;99.90
16114;DHT22;8161;-33.910;151.156;2023-04-02T08:58:53;19.30;99.90
16114;DHT22;8161;-33.910;151.156;2023-04-02T09:01:44;19.70;99.90
16114;DHT22;8161;-33.910;151.156;2023-04-02T09:04:20;19.50;99.90
16114;DHT22;8161;-33.910;151.156;2023-04-02T09:06:49;19.10;99.90
16114;DHT22;8161;-33.910;151.156;2023-04-02T09:09:18;19.40;99.90
16114;DHT22;8161;-33.910;151.156;2023-04-02T09:11:58;19.60;99.90
16114;DHT22;8161;-33.910;151.156;2023-04-02T09:17:03;19.40;99.90
16114;DHT22;8161;-33.910;151.156;2023-04-02T09:22:10;19.40;99.90
16114;DHT22;8161;-33.910;151.156;2023-04-02T09:29:55;19.60;99.90
16114;DHT22;8161;-33.910;151.156;2023-04-02T09:32:46;19.20;99.90
16114;DHT22;8161;-33.910;151.156;2023-04-02T09:37:43;19.10;99.90
16114;DHT22;8161;-33.910;151.156;2023-04-02T09:42:43;19.30;99.90
16114;DHT22;8161;-33.910;151.156;2023-04-02T09:45:20;19.00;99.90
16114;DHT22;8161;-33.910;151.156;2023-04-02T09:47:50;18.70;99.90
16114;DHT22;8161;-33.910;151.156;2023-04-02T09:52:51;18.80;99.90
16114;DHT22;8161;-33.910;151.156;2023-04-02T09:55:22;18.90;99.90
16114;DHT22;8161;-33.910;151.156;2023-04-02T09:58:07;18.90;99.90
16114;DHT22;8161;-33.910;151.156;2023-04-02T10:00:37;18.90;99.90
16114;DHT22;8161;-33.910;151.156;2023-04-02T10:05:34;19.00;99.90
16114;DHT22;8161;-33.910;151.156;2023-04-02T10:08:27;18.50;99.90
16114;DHT22;8161;-33.910;151.156;2023-04-02T10:10:58;18.70;99.90
16114;DHT22;8161;-33.910;151.156;2023-04-02T10:16:29;19.10;99.90
16114;DHT22;8161;-33.910;151.156;2023-04-02T10:21:41;18.80;99.90
16114;DHT22;8161;-33.910;151.156;2023-04-02T10:24:12;18.90;99.90
16114;DHT22;8161;-33.910;151.156;2023-04-02T10:26:56;18.70;99.90
16114;DHT22;8161;-33.910;151.156;2023-04-02T10:40:09;18.70;99.90
16114;DHT22;8161;-33.910;151.156;2023-04-02T10:45:45;19.00;99.90
16114;DHT22;8161;-33.910;151.156;2023-04-02T10:54:16;18.60;99.90
16114;DHT22;8161;-33.910;151.156;2023-04-02T10:56:48;18.50;99.90
16114;DHT22;8161;-33.910;151.156;2023-04-02T10:59:28;18.50;99.90
16114;DHT22;8161;-33.910;151.156;2023-04-02T11:01:59;18.50;99.90
16114;DHT22;8161;-33.910;151.156;2023-04-02T11:04:41;18.70;99.90
16114;DHT22;8161;-33.910;151.156;2023-04-02T11:07:22;18.20;99.90
16114;DHT22;8161;-33.910;151.156;2023-04-02T11:09:52;18.30;99.90
16114;DHT22;8161;-33.910;151.156;2023-04-02T11:15:12;18.30;99.90
16114;DHT22;8161;-33.910;151.156;2023-04-02T11:17:42;18.80;99.90
16114;DHT22;8161;-33.910;151.156;2023-04-02T11:23:13;18.30;99.90
16114;DHT22;8161;-33.910;151.156;2023-04-02T11:25:43;18.50;99.90
16114;DHT22;8161;-33.910;151.156;2023-04-02T11:28:28;18.00;99.90
16114;DHT22;8161;-33.910;151.156;2023-04-02T11:30:56;18.70;99.90
16114;DHT22;8161;-33.910;151.156;2023-04-02T11:35:51;18.80;99.90
16114;DHT22;8161;-33.910;151.156;2023-04-02T11:40:57;18.80;99.90
16114;DHT22;8161;-33.910;151.156;2023-04-02T11:48:35;18.20;99.90
16114;DHT22;8161;-33.910;151.156;2023-04-02T11:53:50;18.60;99.90
16114;DHT22;8161;-33.910;151.156;2023-04-02T11:56:40;18.50;99.90
16114;DHT22;8161;-33.910;151.156;2023-04-02T12:02:07;18.10;99.90
16114;DHT22;8161;-33.910;151.156;2023-04-02T12:04:47;18.40;99.90
16114;DHT22;8161;-33.910;151.156;2023-04-02T12:10:30;18.60;99.90
16114;DHT22;8161;-33.910;151.156;2023-04-02T12:12:58;18.20;99.90
16114;DHT22;8161;-33.910;151.156;2023-04-02T12:15:43;18.00;99.90
16114;DHT22;8161;-33.910;151.156;2023-04-02T12:20:52;17.90;99.90
16114;DHT22;8161;-33.910;151.156;2023-04-02T12:26:00;17.40;99.90
16114;DHT22;8161;-33.910;151.156;2023-04-02T12:28:29;18.10;99.90
16114;DHT22;8161;-33.910;151.156;2023-04-02T12:31:25;18.00;99.90
16114;DHT22;8161;-33.910;151.156;2023-04-02T12:36:22;18.30;99.90
16114;DHT22;8161;-33.910;151.156;2023-04-02T12:38:57;18.10;99.90
16114;DHT22;8161;-33.910;151.156;2023-04-02T12:41:29;18.40;99.90
16114;DHT22;8161;-33.910;151.156;2023-04-02T12:44:02;18.20;99.90
16114;DHT22;8161;-33.910;151.156;2023-04-02T12:46:34;17.90;99.90
16114;DHT22;8161;-33.910;151.156;2023-04-02T12:49:05;18.00;99.90
16114;DHT22;8161;-33.910;151.156;2023-04-02T12:51:34;17.70;99.90
16114;DHT22;8161;-33.910;151.156;2023-04-02T12:54:02;17.40;99.90
16114;DHT22;8161;-33.910;151.156;2023-04-02T12:56:30;17.80;99.90
16114;DHT22;8161;-33.910;151.156;2023-04-02T12:58:59;18.30;99.90
16114;DHT22;8161;-33.910;151.156;2023-04-02T13:01:28;18.20;99.90
16114;DHT22;8161;-33.910;151.156;2023-04-02T13:04:08;17.40;99.90
16114;DHT22;8161;-33.910;151.156;2023-04-02T13:06:46;18.00;99.90
16114;DHT22;8161;-33.910;151.156;2023-04-02T13:09:33;18.00;99.90
16114;DHT22;8161;-33.910;151.156;2023-04-02T13:12:01;18.10;99.90
16114;DHT22;8161;-33.910;151.156;2023-04-02T13:14:29;18.10;99.90
16114;DHT22;8161;-33.910;151.156;2023-04-02T13:16:56;18.10;99.90
16114;DHT22;8161;-33.910;151.156;2023-04-02T13:19:29;17.70;99.90
16114;DHT22;8161;-33.910;151.156;2023-04-02T13:21:59;17.80;99.90
16114;DHT22;8161;-33.910;151.156;2023-04-02T13:24:29;18.10;99.90
16114;DHT22;8161;-33.910;151.156;2023-04-02T13:26:59;18.00;99.90
16114;DHT22;8161;-33.910;151.156;2023-04-02T13:29:32;17.90;99.90
16114;DHT22;8161;-33.910;151.156;2023-04-02T13:32:04;18.60;99.90
16114;DHT22;8161;-33.910;151.156;2023-04-02T13:34:33;17.70;99.90
16114;DHT22;8161;-33.910;151.156;2023-04-02T13:37:00;18.30;99.90
16114;DHT22;8161;-33.910;151.156;2023-04-02T13:39:27;18.10;99.90
16114;DHT22;8161;-33.910;151.156;2023-04-02T13:42:00;18.00;99.90
16114;DHT22;8161;-33.910;151.156;2023-04-02T13:44:32;17.60;99.90
16114;DHT22;8161;-33.910;151.156;2023-04-02T13:47:00;18.00;99.90
16114;DHT22;8161;-33.910;151.156;2023-04-02T13:49:28;18.10;99.90
16114;DHT22;8161;-33.910;151.156;2023-04-02T13:51:58;17.80;99.90
16114;DHT22;8161;-33.910;151.156;2023-04-02T13:57:00;17.70;99.90
16114;DHT22;8161;-33.910;151.156;2023-04-02T13:59:27;18.30;99.90
16114;DHT22;8161;-33.910;151.156;2023-04-02T14:01:57;18.40;99.90
16114;DHT22;8161;-33.910;151.156;2023-04-02T14:04:30;18.30;99.90
16114;DHT22;8161;-33.910;151.156;2023-04-02T14:10:08;17.80;99.90
16114;DHT22;8161;-33.910;151.156;2023-04-02T14:15:38;18.20;99.90
16114;DHT22;8161;-33.910;151.156;2023-04-02T14:40:05;17.90;99.90
16114;DHT22;8161;-33.910;151.156;2023-04-02T14:42:43;18.00;99.90
16114;DHT22;8161;-33.910;151.156;2023-04-02T14:48:06;17.40;99.90
16114;DHT22;8161;-33.910;151.156;2023-04-02T14:50:39;17.80;99.90
16114;DHT22;8161;-33.910;151.156;2023-04-02T14:53:25;18.10;99.90
16114;DHT22;8161;-33.910;151.156;2023-04-02T14:55:54;17.40;99.90
16114;DHT22;8161;-33.910;151.156;2023-04-02T14:58:32;17.70;99.90
16114;DHT22;8161;-33.910;151.156;2023-04-02T15:01:05;17.50;99.90
16114;DHT22;8161;-33.910;151.156;2023-04-02T15:03:41;17.70;99.90
16114;DHT22;8161;-33.910;151.156;2023-04-02T15:06:17;17.30;99.90
16114;DHT22;8161;-33.910;151.156;2023-04-02T15:08:57;17.60;99.90
16114;DHT22;8161;-33.910;151.156;2023-04-02T15:11:51;17.70;99.90
16114;DHT22;8161;-33.910;151.156;2023-04-02T15:15:32;17.90;99.90
16114;DHT22;8161;-33.910;151.156;2023-04-02T15:17:23;17.20;99.90
16114;DHT22;8161;-33.910;151.156;2023-04-02T15:19:57;17.50;99.90
16114;DHT22;8161;-33.910;151.156;2023-04-02T15:25:47;17.60;99.90
16114;DHT22;8161;-33.910;151.156;2023-04-02T15:30:53;17.60;99.90
16114;DHT22;8161;-33.910;151.156;2023-04-02T15:33:30;17.20;99.90
16114;DHT22;8161;-33.910;151.156;2023-04-02T15:36:21;17.80;99.90
16114;DHT22;8161;-33.910;151.156;2023-04-02T15:39:15;17.30;99.90
16114;DHT22;8161;-33.910;151.156;2023-04-02T15:42:18;17.60;99.90
16114;DHT22;8161;-33.910;151.156;2023-04-02T15:47:44;17.80;99.90
16114;DHT22;8161;-33.910;151.156;2023-04-02T15:53:58;17.80;99.90
16114;DHT22;8161;-33.910;151.156;2023-04-02T16:04:36;17.40;99.90
16114;DHT22;8161;-33.910;151.156;2023-04-02T16:12:33;17.70;99.90
16114;DHT22;8161;-33.910;151.156;2023-04-02T16:15:13;17.70;99.90
16114;DHT22;8161;-33.910;151.156;2023-04-02T16:17:50;17.40;99.90
16114;DHT22;8161;-33.910;151.156;2023-04-02T16:20:25;17.80;99.90
16114;DHT22;8161;-33.910;151.156;2023-04-02T16:23:04;17.60;99.90
16114;DHT22;8161;-33.910;151.156;2023-04-02T16:25:46;17.50;99.90
16114;DHT22;8161;-33.910;151.156;2023-04-02T16:28:34;17.50;99.90
16114;DHT22;8161;-33.910;151.156;2023-04-02T16:36:45;17.00;99.90
16114;DHT22;8161;-33.910;151.156;2023-04-02T16:39:56;17.40;99.90
16114;DHT22;8161;-33.910;151.156;2023-04-02T17:06:43;17.40;99.90
16114;DHT22;8161;-33.910;151.156;2023-04-02T17:09:16;17.60;99.90
16114;DHT22;8161;-33.910;151.156;2023-04-02T17:11:57;17.50;99.90
16114;DHT22;8161;-33.910;151.156;2023-04-02T17:14:41;17.20;99.90
16114;DHT22;8161;-33.910;151.156;2023-04-02T17:17:13;17.20;99.90
16114;DHT22;8161;-33.910;151.156;2023-04-02T17:19:43;16.70;99.90
16114;DHT22;8161;-33.910;151.156;2023-04-02T17:22:18;17.00;99.90
16114;DHT22;8161;-33.910;151.156;2023-04-02T17:24:57;17.50;99.90
16114;DHT22;8161;-33.910;151.156;2023-04-02T17:30:24;17.10;99.90
16114;DHT22;8161;-33.910;151.156;2023-04-02T17:32:56;17.20;99.90
16114;DHT22;8161;-33.910;151.156;2023-04-02T17:47:28;16.80;99.90
16114;DHT22;8161;-33.910;151.156;2023-04-02T17:52:45;16.70;99.90
16114;DHT22;8161;-33.910;151.156;2023-04-02T17:55:16;17.00;99.90
16114;DHT22;8161;-33.910;151.156;2023-04-02T18:05:53;16.90;99.90
16114;DHT22;8161;-33.910;151.156;2023-04-02T18:08:46;16.70;99.90
16114;DHT22;8161;-33.910;151.156;2023-04-02T18:11:21;17.10;99.90
16114;DHT22;8161;-33.910;151.156;2023-04-02T18:14:03;16.80;99.90
16114;DHT22;8161;-33.910;151.156;2023-04-02T18:19:53;17.00;99.90
16114;DHT22;8161;-33.910;151.156;2023-04-02T18:36:44;17.50;99.90
16114;DHT22;8161;-33.910;151.156;2023-04-02T18:42:48;16.90;99.90
16114;DHT22;8161;-33.910;151.156;2023-04-02T18:51:01;16.90;99.90
16114;DHT22;8161;-33.910;151.156;2023-04-02T18:53:30;17.40;99.90
16114;DHT22;8161;-33.910;151.156;2023-04-02T18:56:09;16.80;99.90
16114;DHT22;8161;-33.910;151.156;2023-04-02T19:01:10;17.20;99.90
16114;DHT22;8161;-33.910;151.156;2023-04-02T19:03:50;16.50;99.90
16114;DHT22;8161;-33.910;151.156;2023-04-02T19:09:33;16.80;99.90
16114;DHT22;8161;-33.910;151.156;2023-04-02T19:12:01;17.30;99.90
16114;DHT22;8161;-33.910;151.156;2023-04-02T19:14:32;17.50;99.90
16114;DHT22;8161;-33.910;151.156;2023-04-02T19:18:03;17.30;99.90
16114;DHT22;8161;-33.910;151.156;2023-04-02T19:22:44;17.10;99.90
16114;DHT22;8161;-33.910;151.156;2023-04-02T19:43:44;17.50;99.90
16114;DHT22;8161;-33.910;151.156;2023-04-02T19:46:14;17.30;99.90
16114;DHT22;8161;-33.910;151.156;2023-04-02T19:49:00;17.00;99.90
16114;DHT22;8161;-33.910;151.156;2023-04-02T19:53:56;16.90;99.90
16114;DHT22;8161;-33.910;151.156;2023-04-02T19:56:23;16.80;99.90
16114;DHT22;8161;-33.910;151.156;2023-04-02T19:58:51;17.10;99.90
16114;DHT22;8161;-33.910;151.156;2023-04-02T20:01:18;17.20;99.90
16114;DHT22;8161;-33.910;151.156;2023-04-02T20:03:45;17.50;99.90
16114;DHT22;8161;-33.910;151.156;2023-04-02T20:06:12;17.30;99.90
16114;DHT22;8161;-33.910;151.156;2023-04-02T20:08:40;17.40;99.90
16114;DHT22;8161;-33.910;151.156;2023-04-02T20:11:07;17.50;99.90
16114;DHT22;8161;-33.910;151.156;2023-04-02T20:13:35;17.40;99.90
16114;DHT22;8161;-33.910;151.156;2023-04-02T20:16:03;17.20;99.90
16114;DHT22;8161;-33.910;151.156;2023-04-02T20:18:31;16.90;99.90
16114;DHT22;8161;-33.910;151.156;2023-04-02T20:21:04;17.50;99.90
16114;DHT22;8161;-33.910;151.156;2023-04-02T20:23:32;17.30;99.90
16114;DHT22;8161;-33.910;151.156;2023-04-02T20:25:59;17.10;99.90
16114;DHT22;8161;-33.910;151.156;2023-04-02T20:28:28;17.20;99.90
16114;DHT22;8161;-33.910;151.156;2023-04-02T20:31:10;17.10;99.90
16114;DHT22;8161;-33.910;151.156;2023-04-02T20:33:38;17.50;99.90
16114;DHT22;8161;-33.910;151.156;2023-04-02T20:36:08;17.40;99.90
16114;DHT22;8161;-33.910;151.156;2023-04-02T20:38:36;17.60;99.90
16114;DHT22;8161;-33.910;151.156;2023-04-02T20:41:05;17.30;99.90
16114;DHT22;8161;-33.910;151.156;2023-04-02T20:43:33;17.60;99.90
16114;DHT22;8161;-33.910;151.156;2023-04-02T20:46:03;17.80;99.90
16114;DHT22;8161;-33.910;151.156;2023-04-02T20:48:31;17.00;99.90
16114;DHT22;8161;-33.910;151.156;2023-04-02T20:53:32;17.30;99.90
16114;DHT22;8161;-33.910;151.156;2023-04-02T20:56:16;17.20;99.90
16114;DHT22;8161;-33.910;151.156;2023-04-02T20:58:44;17.60;99.90
16114;DHT22;8161;-33.910;151.156;2023-04-02T21:01:19;17.10;99.90
16114;DHT22;8161;-33.910;151.156;2023-04-02T21:03:47;16.90;99.90
16114;DHT22;8161;-33.910;151.156;2023-04-02T21:06:19;17.70;99.90
16114;DHT22;8161;-33.910;151.156;2023-04-02T21:08:48;17.30;99.90
16114;DHT22;8161;-33.910;151.156;2023-04-02T21:11:15;17.90;99.90
16114;DHT22;8161;-33.910;151.156;2023-04-02T21:13:43;17.50;99.90
16114;DHT22;8161;-33.910;151.156;2023-04-02T21:16:15;17.80;99.90
16114;DHT22;8161;-33.910;151.156;2023-04-02T21:18:47;17.50;99.90
16114;DHT22;8161;-33.910;151.156;2023-04-02T21:21:15;17.30;99.90
16114;DHT22;8161;-33.910;151.156;2023-04-02T21:23:43;17.60;99.90
16114;DHT22;8161;-33.910;151.156;2023-04-02T21:26:13;17.30;99.90
16114;DHT22;8161;-33.910;151.156;2023-04-02T21:28:41;18.00;99.90
16114;DHT22;8161;-33.910;151.156;2023-04-02T21:31:14;18.00;99.90
16114;DHT22;8161;-33.910;151.156;2023-04-02T21:33:47;18.00;99.90
16114;DHT22;8161;-33.910;151.156;2023-04-02T21:38:56;17.60;99.90
16114;DHT22;8161;-33.910;151.156;2023-04-02T21:41:28;18.10;99.90
16114;DHT22;8161;-33.910;151.156;2023-04-02T21:43:57;18.40;99.90
16114;DHT22;8161;-33.910;151.156;2023-04-02T21:46:27;18.20;99.90
16114;DHT22;8161;-33.910;151.156;2023-04-02T21:48:56;18.60;99.90
16114;DHT22;8161;-33.910;151.156;2023-04-02T21:51:31;18.70;99.90
16114;DHT22;8161;-33.910;151.156;2023-04-02T21:53:59;18.40;99.90
16114;DHT22;8161;-33.910;151.156;2023-04-02T21:56:28;18.70;99.90
16114;DHT22;8161;-33.910;151.156;2023-04-02T21:58:56;19.20;99.90
16114;DHT22;8161;-33.910;151.156;2023-04-02T22:01:25;19.60;99.90